Richmond International Airport
KRIC : now visible

Airfield :











YOU CAN JOIN US ON...

 
LOGIN :

Register | Disclaimer

   EN    FR    IT 

 









Legend :    VFR   Marginal VFR   IFR   Intensive IFR   Very Intensive IFR
Visi :
Ceiling :
>= 8 km
>= 3000ft
5 to 8 km
1000 to 3000 ft
1500m to 5 km
500 to 1000 ft
800 to 1500m
200 to 500 ft
< 800m
< 200 ft
Symbols :   Thunderstorms  Fog  Heavy snow  Heavy precipitations  Wind > 20 kt







- Airport Elevation : 167 ft
- IATA code : RIC


KRIC - Richmond International

CURRENT METAR :
  • 172054Z 18006KT 10SM BKN014 BKN130 OVC250 05/02 A3002 RMK AO2 SLP171 60004 T00500022 56037 $

EXPIRED METARs :
  • 172045Z 17006KT 10SM BKN014 BKN130 05/02 A3001 RMK AO2 T00500022 $
  • 171954Z 18007KT 10SM FEW010 SCT070 BKN150 04/02 A3003 RMK AO2 RAE40 SLP174 P0002 T00440022 $
  • 171854Z 16007KT 8SM -RA FEW070 BKN085 OVC095 04/00 A3006 RMK AO2 SLP186 P0002 T00390000 $

TAF KRIC
Valid from the 17 at 18:00 until the 18 at 18:00 UTC


171748Z 1718/1818 10003KT P6SM -RA OVC050
FM172100 16006KT 5SM -RA BR SCT020 OVC035
FM172300 16004KT 4SM -RA BR OVC020
FM180400 23005KT 2SM RA BR OVC008
FM181100 25007KT P6SM BKN015 OVC200
FM181500 29011KT P6SM SCT060
KZDC FIR / North America



MET'MAP, your aeronautical weather chart ! - Copyright ORBIFLY December 2007 - Disclaimer

ORBIFLY MET'MAP TEAM :

Programming & Development : Alexandra Zaïnal
Concept & Development : Baudouin d'Aumeries
Co-Development & Prog : Marc-Olivier Méhu
Technical & hardware support : Manuel Goepfert

Contact : metmap@orbifly.com




SOURCES & CREDITS :

   NOAA       Earth
Advisory